sensor_id;sensor_type;location;lat;lon;timestamp;P1;durP1;ratioP1;P2;durP2;ratioP2
8225;SDS011;4154;48.810;9.012;2022-07-03T00:00:43;2.78;;;2.28;;
8225;SDS011;4154;48.810;9.012;2022-07-03T00:03:09;3.35;;;2.55;;
8225;SDS011;4154;48.810;9.012;2022-07-03T00:05:35;2.60;;;2.40;;
8225;SDS011;4154;48.810;9.012;2022-07-03T00:08:02;2.92;;;2.50;;
8225;SDS011;4154;48.810;9.012;2022-07-03T00:10:29;6.03;;;2.65;;
8225;SDS011;4154;48.810;9.012;2022-07-03T00:12:55;3.22;;;2.70;;
8225;SDS011;4154;48.810;9.012;2022-07-03T00:15:21;2.60;;;2.40;;
8225;SDS011;4154;48.810;9.012;2022-07-03T00:17:46;2.70;;;2.50;;
8225;SDS011;4154;48.810;9.012;2022-07-03T00:20:12;2.97;;;2.53;;
8225;SDS011;4154;48.810;9.012;2022-07-03T00:22:41;2.60;;;2.30;;
8225;SDS011;4154;48.810;9.012;2022-07-03T00:25:10;2.80;;;2.40;;
8225;SDS011;4154;48.810;9.012;2022-07-03T00:27:38;2.53;;;2.33;;
8225;SDS011;4154;48.810;9.012;2022-07-03T00:30:08;2.47;;;2.20;;
8225;SDS011;4154;48.810;9.012;2022-07-03T00:32:37;3.08;;;2.40;;
8225;SDS011;4154;48.810;9.012;2022-07-03T00:35:04;2.40;;;2.15;;
8225;SDS011;4154;48.810;9.012;2022-07-03T00:37:31;2.47;;;2.28;;
8225;SDS011;4154;48.810;9.012;2022-07-03T00:39:57;2.70;;;2.50;;
8225;SDS011;4154;48.810;9.012;2022-07-03T00:42:23;2.80;;;2.38;;
8225;SDS011;4154;48.810;9.012;2022-07-03T00:44:53;2.55;;;2.08;;
8225;SDS011;4154;48.810;9.012;2022-07-03T00:47:22;2.78;;;2.30;;
8225;SDS011;4154;48.810;9.012;2022-07-03T00:49:53;3.15;;;2.50;;
8225;SDS011;4154;48.810;9.012;2022-07-03T00:52:23;2.40;;;2.20;;
8225;SDS011;4154;48.810;9.012;2022-07-03T00:54:53;2.90;;;2.10;;
8225;SDS011;4154;48.810;9.012;2022-07-03T00:57:22;4.45;;;2.38;;
8225;SDS011;4154;48.810;9.012;2022-07-03T00:59:50;3.53;;;2.40;;
8225;SDS011;4154;48.810;9.012;2022-07-03T01:02:42;3.03;;;2.30;;
8225;SDS011;4154;48.810;9.012;2022-07-03T01:28:14;2.35;;;2.20;;
8225;SDS011;4154;48.810;9.012;2022-07-03T01:30:44;2.85;;;2.30;;
8225;SDS011;4154;48.810;9.012;2022-07-03T01:33:18;2.58;;;2.38;;
8225;SDS011;4154;48.810;9.012;2022-07-03T01:38:33;3.28;;;2.30;;
8225;SDS011;4154;48.810;9.012;2022-07-03T01:41:07;3.40;;;2.60;;
8225;SDS011;4154;48.810;9.012;2022-07-03T01:43:39;3.22;;;2.30;;
8225;SDS011;4154;48.810;9.012;2022-07-03T01:46:21;3.80;;;2.65;;
8225;SDS011;4154;48.810;9.012;2022-07-03T01:48:54;2.70;;;2.50;;
8225;SDS011;4154;48.810;9.012;2022-07-03T01:51:21;4.45;;;2.55;;
8225;SDS011;4154;48.810;9.012;2022-07-03T01:53:49;2.58;;;2.38;;
8225;SDS011;4154;48.810;9.012;2022-07-03T01:56:18;3.67;;;2.60;;
8225;SDS011;4154;48.810;9.012;2022-07-03T01:58:47;3.00;;;2.30;;
8225;SDS011;4154;48.810;9.012;2022-07-03T02:03:41;4.53;;;2.50;;
8225;SDS011;4154;48.810;9.012;2022-07-03T02:06:22;2.58;;;2.30;;
8225;SDS011;4154;48.810;9.012;2022-07-03T02:09:24;2.63;;;2.42;;
8225;SDS011;4154;48.810;9.012;2022-07-03T02:12:14;2.63;;;2.42;;
8225;SDS011;4154;48.810;9.012;2022-07-03T02:15:04;3.38;;;2.40;;
8225;SDS011;4154;48.810;9.012;2022-07-03T02:17:37;2.85;;;2.22;;
8225;SDS011;4154;48.810;9.012;2022-07-03T02:20:09;2.50;;;2.30;;
8225;SDS011;4154;48.810;9.012;2022-07-03T02:22:40;2.78;;;2.35;;
8225;SDS011;4154;48.810;9.012;2022-07-03T02:25:21;2.85;;;2.50;;
8225;SDS011;4154;48.810;9.012;2022-07-03T02:27:56;3.25;;;2.20;;
8225;SDS011;4154;48.810;9.012;2022-07-03T02:30:29;2.65;;;2.45;;
8225;SDS011;4154;48.810;9.012;2022-07-03T02:33:03;2.53;;;2.08;;
8225;SDS011;4154;48.810;9.012;2022-07-03T02:35:33;2.20;;;2.10;;
8225;SDS011;4154;48.810;9.012;2022-07-03T02:38:16;2.50;;;2.30;;
8225;SDS011;4154;48.810;9.012;2022-07-03T02:40:46;3.30;;;2.22;;
8225;SDS011;4154;48.810;9.012;2022-07-03T02:43:47;2.40;;;2.17;;
8225;SDS011;4154;48.810;9.012;2022-07-03T02:49:16;2.33;;;2.05;;
8225;SDS011;4154;48.810;9.012;2022-07-03T02:51:54;3.08;;;2.00;;
8225;SDS011;4154;48.810;9.012;2022-07-03T02:54:38;2.20;;;2.08;;
8225;SDS011;4154;48.810;9.012;2022-07-03T02:57:12;2.53;;;2.33;;
8225;SDS011;4154;48.810;9.012;2022-07-03T02:59:56;4.25;;;2.20;;
8225;SDS011;4154;48.810;9.012;2022-07-03T03:05:22;2.10;;;2.00;;
8225;SDS011;4154;48.810;9.012;2022-07-03T03:10:49;2.33;;;2.13;;
8225;SDS011;4154;48.810;9.012;2022-07-03T03:13:18;2.92;;;2.15;;
8225;SDS011;4154;48.810;9.012;2022-07-03T03:16:02;2.20;;;2.00;;
8225;SDS011;4154;48.810;9.012;2022-07-03T03:18:38;2.40;;;2.20;;
8225;SDS011;4154;48.810;9.012;2022-07-03T03:21:09;2.50;;;2.30;;
8225;SDS011;4154;48.810;9.012;2022-07-03T03:23:47;3.58;;;2.47;;
8225;SDS011;4154;48.810;9.012;2022-07-03T03:26:25;2.42;;;2.22;;
8225;SDS011;4154;48.810;9.012;2022-07-03T03:28:58;3.25;;;2.22;;
8225;SDS011;4154;48.810;9.012;2022-07-03T03:31:24;2.45;;;2.13;;
8225;SDS011;4154;48.810;9.012;2022-07-03T03:33:51;2.35;;;2.20;;
8225;SDS011;4154;48.810;9.012;2022-07-03T03:36:18;2.42;;;2.22;;
8225;SDS011;4154;48.810;9.012;2022-07-03T03:38:45;2.17;;;1.98;;
8225;SDS011;4154;48.810;9.012;2022-07-03T03:41:13;2.97;;;2.13;;
8225;SDS011;4154;48.810;9.012;2022-07-03T03:43:39;2.00;;;1.90;;
8225;SDS011;4154;48.810;9.012;2022-07-03T03:46:06;2.42;;;2.22;;
8225;SDS011;4154;48.810;9.012;2022-07-03T03:48:32;2.30;;;2.10;;
8225;SDS011;4154;48.810;9.012;2022-07-03T03:51:00;2.47;;;2.28;;
8225;SDS011;4154;48.810;9.012;2022-07-03T03:53:28;2.45;;;2.10;;
8225;SDS011;4154;48.810;9.012;2022-07-03T03:56:11;2.65;;;2.15;;
8225;SDS011;4154;48.810;9.012;2022-07-03T03:58:41;2.05;;;1.95;;
8225;SDS011;4154;48.810;9.012;2022-07-03T04:01:08;2.58;;;2.10;;
8225;SDS011;4154;48.810;9.012;2022-07-03T04:03:37;2.72;;;2.15;;
8225;SDS011;4154;48.810;9.012;2022-07-03T04:06:03;2.50;;;2.15;;
8225;SDS011;4154;48.810;9.012;2022-07-03T04:08:30;2.92;;;2.13;;
8225;SDS011;4154;48.810;9.012;2022-07-03T04:10:56;2.10;;;2.00;;
8225;SDS011;4154;48.810;9.012;2022-07-03T04:13:23;2.47;;;2.28;;
8225;SDS011;4154;48.810;9.012;2022-07-03T04:15:49;2.60;;;2.10;;
8225;SDS011;4154;48.810;9.012;2022-07-03T04:18:18;2.63;;;2.30;;
8225;SDS011;4154;48.810;9.012;2022-07-03T04:20:44;2.30;;;2.10;;
8225;SDS011;4154;48.810;9.012;2022-07-03T04:23:12;2.38;;;2.13;;
8225;SDS011;4154;48.810;9.012;2022-07-03T04:25:38;2.42;;;2.00;;
8225;SDS011;4154;48.810;9.012;2022-07-03T04:28:04;2.15;;;2.05;;
8225;SDS011;4154;48.810;9.012;2022-07-03T04:30:30;2.50;;;2.30;;
8225;SDS011;4154;48.810;9.012;2022-07-03T04:32:55;2.05;;;1.90;;
8225;SDS011;4154;48.810;9.012;2022-07-03T04:35:21;2.40;;;2.10;;
8225;SDS011;4154;48.810;9.012;2022-07-03T04:37:47;2.17;;;2.08;;
8225;SDS011;4154;48.810;9.012;2022-07-03T04:40:13;2.38;;;2.17;;
8225;SDS011;4154;48.810;9.012;2022-07-03T04:42:39;2.20;;;2.00;;
8225;SDS011;4154;48.810;9.012;2022-07-03T04:45:06;2.00;;;1.90;;
8225;SDS011;4154;48.810;9.012;2022-07-03T04:47:32;2.03;;;1.73;;
8225;SDS011;4154;48.810;9.012;2022-07-03T04:49:58;1.92;;;1.83;;
8225;SDS011;4154;48.810;9.012;2022-07-03T04:52:24;2.00;;;1.90;;
8225;SDS011;4154;48.810;9.012;2022-07-03T04:54:50;2.33;;;1.92;;
8225;SDS011;4154;48.810;9.012;2022-07-03T04:57:15;2.03;;;1.92;;
8225;SDS011;4154;48.810;9.012;2022-07-03T04:59:41;2.33;;;1.95;;
8225;SDS011;4154;48.810;9.012;2022-07-03T05:02:07;2.35;;;1.98;;
8225;SDS011;4154;48.810;9.012;2022-07-03T05:04:33;2.00;;;1.80;;
8225;SDS011;4154;48.810;9.012;2022-07-03T05:06:59;2.22;;;2.00;;
8225;SDS011;4154;48.810;9.012;2022-07-03T05:09:25;2.17;;;1.98;;
8225;SDS011;4154;48.810;9.012;2022-07-03T05:11:51;3.60;;;1.90;;
8225;SDS011;4154;48.810;9.012;2022-07-03T05:14:18;2.08;;;1.98;;
8225;SDS011;4154;48.810;9.012;2022-07-03T05:16:44;2.15;;;1.92;;
8225;SDS011;4154;48.810;9.012;2022-07-03T05:19:09;2.33;;;1.80;;
8225;SDS011;4154;48.810;9.012;2022-07-03T05:21:35;1.92;;;1.83;;
8225;SDS011;4154;48.810;9.012;2022-07-03T05:24:01;2.33;;;2.00;;
8225;SDS011;4154;48.810;9.012;2022-07-03T05:26:27;2.00;;;1.80;;
8225;SDS011;4154;48.810;9.012;2022-07-03T05:28:53;1.85;;;1.70;;
8225;SDS011;4154;48.810;9.012;2022-07-03T05:31:19;2.03;;;1.70;;
8225;SDS011;4154;48.810;9.012;2022-07-03T05:33:45;1.90;;;1.80;;
8225;SDS011;4154;48.810;9.012;2022-07-03T05:36:10;2.08;;;1.88;;
8225;SDS011;4154;48.810;9.012;2022-07-03T05:38:36;1.80;;;1.70;;
8225;SDS011;4154;48.810;9.012;2022-07-03T05:41:21;1.95;;;1.85;;
8225;SDS011;4154;48.810;9.012;2022-07-03T05:43:47;2.10;;;1.85;;
8225;SDS011;4154;48.810;9.012;2022-07-03T05:46:12;1.95;;;1.75;;
8225;SDS011;4154;48.810;9.012;2022-07-03T05:48:38;2.42;;;1.85;;
8225;SDS011;4154;48.810;9.012;2022-07-03T05:51:04;2.13;;;1.83;;
8225;SDS011;4154;48.810;9.012;2022-07-03T05:53:30;1.77;;;1.67;;
8225;SDS011;4154;48.810;9.012;2022-07-03T05:55:56;1.90;;;1.80;;
8225;SDS011;4154;48.810;9.012;2022-07-03T05:58:23;1.70;;;1.60;;
8225;SDS011;4154;48.810;9.012;2022-07-03T06:00:49;1.70;;;1.60;;
8225;SDS011;4154;48.810;9.012;2022-07-03T06:03:15;2.00;;;1.90;;
8225;SDS011;4154;48.810;9.012;2022-07-03T06:05:41;2.72;;;1.60;;
8225;SDS011;4154;48.810;9.012;2022-07-03T06:08:07;1.80;;;1.70;;
8225;SDS011;4154;48.810;9.012;2022-07-03T06:10:33;1.75;;;1.63;;
8225;SDS011;4154;48.810;9.012;2022-07-03T06:13:00;1.70;;;1.60;;
8225;SDS011;4154;48.810;9.012;2022-07-03T06:15:26;2.03;;;1.85;;
8225;SDS011;4154;48.810;9.012;2022-07-03T06:17:52;1.60;;;1.50;;
8225;SDS011;4154;48.810;9.012;2022-07-03T06:20:18;1.80;;;1.50;;
8225;SDS011;4154;48.810;9.012;2022-07-03T06:22:44;1.60;;;1.50;;
8225;SDS011;4154;48.810;9.012;2022-07-03T06:25:10;2.25;;;1.70;;
8225;SDS011;4154;48.810;9.012;2022-07-03T06:27:37;1.60;;;1.50;;
8225;SDS011;4154;48.810;9.012;2022-07-03T06:30:03;1.80;;;1.70;;
8225;SDS011;4154;48.810;9.012;2022-07-03T06:32:30;1.75;;;1.60;;
8225;SDS011;4154;48.810;9.012;2022-07-03T06:34:55;1.67;;;1.42;;
8225;SDS011;4154;48.810;9.012;2022-07-03T06:37:21;1.70;;;1.60;;
8225;SDS011;4154;48.810;9.012;2022-07-03T06:39:47;1.50;;;1.40;;
8225;SDS011;4154;48.810;9.012;2022-07-03T06:42:13;1.52;;;1.40;;
8225;SDS011;4154;48.810;9.012;2022-07-03T06:44:39;1.40;;;1.30;;
8225;SDS011;4154;48.810;9.012;2022-07-03T06:47:06;1.65;;;1.55;;
8225;SDS011;4154;48.810;9.012;2022-07-03T06:49:32;1.55;;;1.45;;
8225;SDS011;4154;48.810;9.012;2022-07-03T06:51:59;1.27;;;1.27;;
8225;SDS011;4154;48.810;9.012;2022-07-03T06:54:25;1.35;;;1.25;;
8225;SDS011;4154;48.810;9.012;2022-07-03T06:56:51;2.63;;;1.40;;
8225;SDS011;4154;48.810;9.012;2022-07-03T06:59:17;1.55;;;1.45;;
8225;SDS011;4154;48.810;9.012;2022-07-03T07:01:43;1.50;;;1.40;;
8225;SDS011;4154;48.810;9.012;2022-07-03T07:04:08;1.70;;;1.60;;
8225;SDS011;4154;48.810;9.012;2022-07-03T07:06:35;1.58;;;1.40;;
8225;SDS011;4154;48.810;9.012;2022-07-03T07:09:01;1.63;;;1.50;;
8225;SDS011;4154;48.810;9.012;2022-07-03T07:11:29;1.45;;;1.35;;
8225;SDS011;4154;48.810;9.012;2022-07-03T07:13:55;1.20;;;1.20;;
8225;SDS011;4154;48.810;9.012;2022-07-03T07:16:21;1.55;;;1.45;;
8225;SDS011;4154;48.810;9.012;2022-07-03T07:18:47;1.55;;;1.35;;
8225;SDS011;4154;48.810;9.012;2022-07-03T07:21:13;1.40;;;1.30;;
8225;SDS011;4154;48.810;9.012;2022-07-03T07:23:39;1.40;;;1.25;;
8225;SDS011;4154;48.810;9.012;2022-07-03T07:26:05;1.42;;;1.30;;
8225;SDS011;4154;48.810;9.012;2022-07-03T07:28:34;1.50;;;1.40;;
8225;SDS011;4154;48.810;9.012;2022-07-03T07:31:00;1.92;;;1.40;;
8225;SDS011;4154;48.810;9.012;2022-07-03T07:33:27;1.50;;;1.40;;
8225;SDS011;4154;48.810;9.012;2022-07-03T07:35:53;1.90;;;1.20;;
8225;SDS011;4154;48.810;9.012;2022-07-03T07:38:18;1.50;;;1.20;;
8225;SDS011;4154;48.810;9.012;2022-07-03T07:40:45;1.40;;;1.30;;
8225;SDS011;4154;48.810;9.012;2022-07-03T07:43:12;1.85;;;1.30;;
8225;SDS011;4154;48.810;9.012;2022-07-03T07:45:38;1.33;;;1.23;;
8225;SDS011;4154;48.810;9.012;2022-07-03T07:48:04;2.03;;;1.08;;
8225;SDS011;4154;48.810;9.012;2022-07-03T07:50:31;1.50;;;1.10;;
8225;SDS011;4154;48.810;9.012;2022-07-03T07:52:57;1.30;;;1.20;;
8225;SDS011;4154;48.810;9.012;2022-07-03T07:55:23;1.98;;;1.10;;
8225;SDS011;4154;48.810;9.012;2022-07-03T07:57:50;1.30;;;1.17;;
8225;SDS011;4154;48.810;9.012;2022-07-03T08:00:17;1.10;;;1.10;;
8225;SDS011;4154;48.810;9.012;2022-07-03T08:02:45;1.33;;;1.10;;
8225;SDS011;4154;48.810;9.012;2022-07-03T08:05:30;1.02;;;0.93;;
8225;SDS011;4154;48.810;9.012;2022-07-03T08:13:15;1.10;;;1.10;;
8225;SDS011;4154;48.810;9.012;2022-07-03T08:15:43;1.00;;;1.00;;
8225;SDS011;4154;48.810;9.012;2022-07-03T08:18:12;1.25;;;1.02;;
8225;SDS011;4154;48.810;9.012;2022-07-03T08:20:38;3.50;;;1.10;;
8225;SDS011;4154;48.810;9.012;2022-07-03T08:23:05;1.23;;;1.10;;
8225;SDS011;4154;48.810;9.012;2022-07-03T08:25:31;4.43;;;1.23;;
8225;SDS011;4154;48.810;9.012;2022-07-03T08:27:57;2.35;;;1.30;;
8225;SDS011;4154;48.810;9.012;2022-07-03T08:30:24;1.58;;;1.20;;
8225;SDS011;4154;48.810;9.012;2022-07-03T08:32:51;2.67;;;1.30;;
8225;SDS011;4154;48.810;9.012;2022-07-03T08:35:20;1.30;;;1.20;;
8225;SDS011;4154;48.810;9.012;2022-07-03T08:37:46;1.30;;;1.20;;
8225;SDS011;4154;48.810;9.012;2022-07-03T08:40:13;1.20;;;1.20;;
8225;SDS011;4154;48.810;9.012;2022-07-03T08:42:54;1.25;;;1.10;;
8225;SDS011;4154;48.810;9.012;2022-07-03T08:45:23;1.23;;;1.20;;
8225;SDS011;4154;48.810;9.012;2022-07-03T08:47:53;1.48;;;1.02;;
8225;SDS011;4154;48.810;9.012;2022-07-03T08:50:20;1.23;;;1.13;;
8225;SDS011;4154;48.810;9.012;2022-07-03T08:52:47;1.52;;;1.10;;
8225;SDS011;4154;48.810;9.012;2022-07-03T08:55:16;2.25;;;1.00;;
8225;SDS011;4154;48.810;9.012;2022-07-03T08:57:44;1.05;;;1.05;;
8225;SDS011;4154;48.810;9.012;2022-07-03T09:00:13;1.60;;;1.00;;
8225;SDS011;4154;48.810;9.012;2022-07-03T09:02:45;1.60;;;1.10;;
8225;SDS011;4154;48.810;9.012;2022-07-03T09:05:14;1.27;;;1.17;;
8225;SDS011;4154;48.810;9.012;2022-07-03T09:07:43;1.88;;;1.20;;
8225;SDS011;4154;48.810;9.012;2022-07-03T09:10:11;1.42;;;1.10;;
8225;SDS011;4154;48.810;9.012;2022-07-03T09:12:40;1.58;;;1.10;;
8225;SDS011;4154;48.810;9.012;2022-07-03T09:15:09;1.25;;;1.00;;
8225;SDS011;4154;48.810;9.012;2022-07-03T09:17:36;1.05;;;1.02;;
8225;SDS011;4154;48.810;9.012;2022-07-03T09:20:03;2.40;;;1.05;;
8225;SDS011;4154;48.810;9.012;2022-07-03T09:22:33;1.10;;;1.10;;
8225;SDS011;4154;48.810;9.012;2022-07-03T09:25:08;0.82;;;0.82;;
8225;SDS011;4154;48.810;9.012;2022-07-03T09:27:51;0.93;;;0.93;;
8225;SDS011;4154;48.810;9.012;2022-07-03T09:30:18;1.10;;;1.00;;
8225;SDS011;4154;48.810;9.012;2022-07-03T09:32:45;1.70;;;1.20;;
8225;SDS011;4154;48.810;9.012;2022-07-03T09:37:41;1.83;;;0.90;;
8225;SDS011;4154;48.810;9.012;2022-07-03T09:40:20;0.98;;;0.93;;
8225;SDS011;4154;48.810;9.012;2022-07-03T09:43:02;1.10;;;1.00;;
8225;SDS011;4154;48.810;9.012;2022-07-03T09:48:21;1.13;;;1.02;;
8225;SDS011;4154;48.810;9.012;2022-07-03T09:51:10;1.75;;;1.17;;
8225;SDS011;4154;48.810;9.012;2022-07-03T09:54:01;3.63;;;1.10;;
8225;SDS011;4154;48.810;9.012;2022-07-03T09:56:35;1.35;;;1.10;;
8225;SDS011;4154;48.810;9.012;2022-07-03T09:59:07;1.27;;;1.00;;
8225;SDS011;4154;48.810;9.012;2022-07-03T10:01:36;1.35;;;1.05;;
8225;SDS011;4154;48.810;9.012;2022-07-03T10:06:48;1.13;;;1.02;;
8225;SDS011;4154;48.810;9.012;2022-07-03T10:09:15;1.60;;;1.10;;
8225;SDS011;4154;48.810;9.012;2022-07-03T10:11:47;1.73;;;1.00;;
8225;SDS011;4154;48.810;9.012;2022-07-03T10:14:14;1.30;;;1.20;;
8225;SDS011;4154;48.810;9.012;2022-07-03T10:16:43;1.33;;;1.10;;
8225;SDS011;4154;48.810;9.012;2022-07-03T10:19:11;1.13;;;1.08;;
8225;SDS011;4154;48.810;9.012;2022-07-03T10:21:55;2.45;;;1.10;;
8225;SDS011;4154;48.810;9.012;2022-07-03T10:24:28;1.83;;;1.10;;
8225;SDS011;4154;48.810;9.012;2022-07-03T10:26:55;1.58;;;1.10;;
8225;SDS011;4154;48.810;9.012;2022-07-03T10:29:24;3.70;;;1.25;;
8225;SDS011;4154;48.810;9.012;2022-07-03T10:31:52;1.10;;;1.00;;
8225;SDS011;4154;48.810;9.012;2022-07-03T10:34:21;2.28;;;0.90;;
8225;SDS011;4154;48.810;9.012;2022-07-03T10:37:00;1.05;;;1.05;;
8225;SDS011;4154;48.810;9.012;2022-07-03T10:39:44;1.45;;;1.17;;
8225;SDS011;4154;48.810;9.012;2022-07-03T10:42:16;1.30;;;1.20;;
8225;SDS011;4154;48.810;9.012;2022-07-03T10:45:12;0.95;;;0.95;;
8225;SDS011;4154;48.810;9.012;2022-07-03T10:50:12;1.60;;;1.13;;
8225;SDS011;4154;48.810;9.012;2022-07-03T10:52:40;1.55;;;1.35;;
8225;SDS011;4154;48.810;9.012;2022-07-03T10:55:10;1.10;;;1.10;;
8225;SDS011;4154;48.810;9.012;2022-07-03T10:57:38;1.02;;;1.00;;
8225;SDS011;4154;48.810;9.012;2022-07-03T11:00:14;1.50;;;1.10;;
8225;SDS011;4154;48.810;9.012;2022-07-03T11:02:46;1.35;;;1.15;;
8225;SDS011;4154;48.810;9.012;2022-07-03T11:05:24;1.75;;;1.10;;
8225;SDS011;4154;48.810;9.012;2022-07-03T11:12:54;1.02;;;1.00;;
8225;SDS011;4154;48.810;9.012;2022-07-03T11:26:02;1.90;;;1.10;;
8225;SDS011;4154;48.810;9.012;2022-07-03T11:38:46;0.90;;;0.90;;
8225;SDS011;4154;48.810;9.012;2022-07-03T11:44:07;2.00;;;1.05;;
8225;SDS011;4154;48.810;9.012;2022-07-03T11:46:36;1.20;;;1.10;;
8225;SDS011;4154;48.810;9.012;2022-07-03T11:51:30;1.83;;;1.20;;
8225;SDS011;4154;48.810;9.012;2022-07-03T11:53:56;2.13;;;1.10;;
8225;SDS011;4154;48.810;9.012;2022-07-03T11:56:22;1.38;;;1.05;;
8225;SDS011;4154;48.810;9.012;2022-07-03T11:58:52;2.75;;;1.20;;
8225;SDS011;4154;48.810;9.012;2022-07-03T12:01:38;1.90;;;1.30;;
8225;SDS011;4154;48.810;9.012;2022-07-03T12:06:45;1.15;;;1.13;;
8225;SDS011;4154;48.810;9.012;2022-07-03T12:09:24;1.27;;;1.00;;
8225;SDS011;4154;48.810;9.012;2022-07-03T12:11:56;1.55;;;1.10;;
8225;SDS011;4154;48.810;9.012;2022-07-03T12:14:35;3.42;;;1.30;;
8225;SDS011;4154;48.810;9.012;2022-07-03T12:22:33;1.95;;;1.75;;
8225;SDS011;4154;48.810;9.012;2022-07-03T12:27:33;2.63;;;1.70;;
8225;SDS011;4154;48.810;9.012;2022-07-03T12:30:11;1.63;;;1.52;;
8225;SDS011;4154;48.810;9.012;2022-07-03T12:32:45;1.10;;;1.10;;
8225;SDS011;4154;48.810;9.012;2022-07-03T12:35:11;1.30;;;1.20;;
8225;SDS011;4154;48.810;9.012;2022-07-03T12:37:38;2.38;;;1.38;;
8225;SDS011;4154;48.810;9.012;2022-07-03T12:40:07;1.60;;;1.50;;
8225;SDS011;4154;48.810;9.012;2022-07-03T12:42:45;1.63;;;1.10;;
8225;SDS011;4154;48.810;9.012;2022-07-03T12:45:14;2.15;;;1.20;;
8225;SDS011;4154;48.810;9.012;2022-07-03T12:47:42;3.00;;;1.20;;
8225;SDS011;4154;48.810;9.012;2022-07-03T12:50:09;2.15;;;1.30;;
8225;SDS011;4154;48.810;9.012;2022-07-03T12:52:50;1.38;;;1.25;;
8225;SDS011;4154;48.810;9.012;2022-07-03T12:55:26;1.95;;;1.10;;
8225;SDS011;4154;48.810;9.012;2022-07-03T13:01:29;1.52;;;1.10;;
8225;SDS011;4154;48.810;9.012;2022-07-03T13:04:02;1.30;;;1.20;;
8225;SDS011;4154;48.810;9.012;2022-07-03T13:06:29;1.40;;;1.30;;
8225;SDS011;4154;48.810;9.012;2022-07-03T13:09:01;1.92;;;1.35;;
8225;SDS011;4154;48.810;9.012;2022-07-03T13:11:33;1.00;;;0.95;;
8225;SDS011;4154;48.810;9.012;2022-07-03T13:14:08;1.30;;;1.20;;
8225;SDS011;4154;48.810;9.012;2022-07-03T13:16:40;1.15;;;1.15;;
8225;SDS011;4154;48.810;9.012;2022-07-03T13:19:11;2.33;;;1.17;;
8225;SDS011;4154;48.810;9.012;2022-07-03T13:21:39;2.38;;;1.33;;
8225;SDS011;4154;48.810;9.012;2022-07-03T13:24:08;1.30;;;1.20;;
8225;SDS011;4154;48.810;9.012;2022-07-03T13:26:34;1.30;;;1.20;;
8225;SDS011;4154;48.810;9.012;2022-07-03T13:29:00;1.15;;;1.05;;
8225;SDS011;4154;48.810;9.012;2022-07-03T13:31:27;1.48;;;1.10;;
8225;SDS011;4154;48.810;9.012;2022-07-03T13:33:54;2.25;;;1.27;;
8225;SDS011;4154;48.810;9.012;2022-07-03T13:36:21;1.95;;;1.30;;
8225;SDS011;4154;48.810;9.012;2022-07-03T13:38:47;2.03;;;1.10;;
8225;SDS011;4154;48.810;9.012;2022-07-03T13:41:13;2.97;;;1.20;;
8225;SDS011;4154;48.810;9.012;2022-07-03T13:43:39;1.10;;;1.00;;
8225;SDS011;4154;48.810;9.012;2022-07-03T13:46:06;1.00;;;1.00;;
8225;SDS011;4154;48.810;9.012;2022-07-03T13:48:32;1.20;;;1.10;;
8225;SDS011;4154;48.810;9.012;2022-07-03T13:50:57;1.73;;;1.27;;
8225;SDS011;4154;48.810;9.012;2022-07-03T13:53:23;2.47;;;1.40;;
8225;SDS011;4154;48.810;9.012;2022-07-03T13:55:49;2.00;;;1.35;;
8225;SDS011;4154;48.810;9.012;2022-07-03T13:58:15;1.23;;;1.13;;
8225;SDS011;4154;48.810;9.012;2022-07-03T14:00:41;1.80;;;1.20;;
8225;SDS011;4154;48.810;9.012;2022-07-03T14:03:06;1.50;;;1.27;;
8225;SDS011;4154;48.810;9.012;2022-07-03T14:05:32;1.40;;;1.30;;
8225;SDS011;4154;48.810;9.012;2022-07-03T14:07:58;1.83;;;1.20;;
8225;SDS011;4154;48.810;9.012;2022-07-03T14:10:24;1.30;;;1.10;;
8225;SDS011;4154;48.810;9.012;2022-07-03T14:12:51;1.40;;;1.30;;
8225;SDS011;4154;48.810;9.012;2022-07-03T14:15:17;1.50;;;1.20;;
8225;SDS011;4154;48.810;9.012;2022-07-03T14:17:43;1.55;;;1.10;;
8225;SDS011;4154;48.810;9.012;2022-07-03T14:20:13;1.23;;;1.20;;
8225;SDS011;4154;48.810;9.012;2022-07-03T14:22:39;4.07;;;1.20;;
8225;SDS011;4154;48.810;9.012;2022-07-03T14:25:05;1.20;;;1.10;;
8225;SDS011;4154;48.810;9.012;2022-07-03T14:27:32;1.00;;;1.00;;
8225;SDS011;4154;48.810;9.012;2022-07-03T14:30:16;1.10;;;1.00;;
8225;SDS011;4154;48.810;9.012;2022-07-03T14:33:01;1.60;;;1.10;;
8225;SDS011;4154;48.810;9.012;2022-07-03T14:35:26;1.67;;;1.27;;
8225;SDS011;4154;48.810;9.012;2022-07-03T14:37:52;1.15;;;1.10;;
8225;SDS011;4154;48.810;9.012;2022-07-03T14:40:18;1.30;;;1.20;;
8225;SDS011;4154;48.810;9.012;2022-07-03T14:42:44;1.65;;;1.05;;
8225;SDS011;4154;48.810;9.012;2022-07-03T14:45:09;0.90;;;0.90;;
8225;SDS011;4154;48.810;9.012;2022-07-03T14:47:35;1.25;;;1.08;;
8225;SDS011;4154;48.810;9.012;2022-07-03T14:50:02;1.40;;;1.10;;
8225;SDS011;4154;48.810;9.012;2022-07-03T14:52:28;1.83;;;1.20;;
8225;SDS011;4154;48.810;9.012;2022-07-03T14:54:54;1.45;;;1.00;;
8225;SDS011;4154;48.810;9.012;2022-07-03T14:57:26;1.05;;;0.95;;
8225;SDS011;4154;48.810;9.012;2022-07-03T15:00:16;1.65;;;1.25;;
8225;SDS011;4154;48.810;9.012;2022-07-03T15:03:07;1.20;;;1.10;;
8225;SDS011;4154;48.810;9.012;2022-07-03T15:05:43;1.00;;;1.00;;
8225;SDS011;4154;48.810;9.012;2022-07-03T15:11:02;1.20;;;1.10;;
8225;SDS011;4154;48.810;9.012;2022-07-03T15:13:32;1.50;;;1.40;;
8225;SDS011;4154;48.810;9.012;2022-07-03T15:15:59;2.30;;;1.30;;
8225;SDS011;4154;48.810;9.012;2022-07-03T15:18:27;1.20;;;1.10;;
8225;SDS011;4154;48.810;9.012;2022-07-03T15:20:54;1.23;;;0.90;;
8225;SDS011;4154;48.810;9.012;2022-07-03T15:23:23;1.00;;;1.00;;
8225;SDS011;4154;48.810;9.012;2022-07-03T15:25:51;1.20;;;1.00;;
8225;SDS011;4154;48.810;9.012;2022-07-03T15:28:17;0.98;;;0.98;;
8225;SDS011;4154;48.810;9.012;2022-07-03T15:30:49;1.88;;;1.10;;
8225;SDS011;4154;48.810;9.012;2022-07-03T15:33:19;1.58;;;1.00;;
8225;SDS011;4154;48.810;9.012;2022-07-03T15:35:48;1.45;;;1.35;;
8225;SDS011;4154;48.810;9.012;2022-07-03T15:38:27;2.38;;;1.05;;
8225;SDS011;4154;48.810;9.012;2022-07-03T15:41:07;1.50;;;1.15;;
8225;SDS011;4154;48.810;9.012;2022-07-03T15:46:56;1.13;;;1.02;;
8225;SDS011;4154;48.810;9.012;2022-07-03T15:49:39;1.20;;;1.10;;
8225;SDS011;4154;48.810;9.012;2022-07-03T15:52:15;1.95;;;1.10;;
8225;SDS011;4154;48.810;9.012;2022-07-03T16:00:26;3.88;;;1.20;;
8225;SDS011;4154;48.810;9.012;2022-07-03T16:05:40;1.20;;;1.10;;
8225;SDS011;4154;48.810;9.012;2022-07-03T16:08:08;2.40;;;1.17;;
8225;SDS011;4154;48.810;9.012;2022-07-03T16:10:39;1.50;;;1.10;;
8225;SDS011;4154;48.810;9.012;2022-07-03T16:13:06;1.10;;;0.93;;
8225;SDS011;4154;48.810;9.012;2022-07-03T16:15:35;1.38;;;1.10;;
8225;SDS011;4154;48.810;9.012;2022-07-03T16:18:08;1.45;;;1.10;;
8225;SDS011;4154;48.810;9.012;2022-07-03T16:20:36;0.95;;;0.93;;
8225;SDS011;4154;48.810;9.012;2022-07-03T16:23:03;2.92;;;1.13;;
8225;SDS011;4154;48.810;9.012;2022-07-03T16:25:34;1.50;;;1.00;;
8225;SDS011;4154;48.810;9.012;2022-07-03T16:28:03;1.77;;;1.10;;
8225;SDS011;4154;48.810;9.012;2022-07-03T16:30:34;1.10;;;1.00;;
8225;SDS011;4154;48.810;9.012;2022-07-03T16:33:09;1.30;;;1.20;;
8225;SDS011;4154;48.810;9.012;2022-07-03T16:35:38;1.38;;;1.20;;
8225;SDS011;4154;48.810;9.012;2022-07-03T16:38:08;1.20;;;1.10;;
8225;SDS011;4154;48.810;9.012;2022-07-03T16:40:41;1.02;;;1.00;;
8225;SDS011;4154;48.810;9.012;2022-07-03T16:43:08;1.20;;;1.10;;
8225;SDS011;4154;48.810;9.012;2022-07-03T16:45:40;2.72;;;1.17;;
8225;SDS011;4154;48.810;9.012;2022-07-03T16:48:10;1.88;;;1.40;;
8225;SDS011;4154;48.810;9.012;2022-07-03T16:50:53;1.15;;;0.93;;
8225;SDS011;4154;48.810;9.012;2022-07-03T16:53:28;1.13;;;1.02;;
8225;SDS011;4154;48.810;9.012;2022-07-03T16:55:54;1.20;;;1.10;;
8225;SDS011;4154;48.810;9.012;2022-07-03T16:58:21;1.30;;;1.20;;
8225;SDS011;4154;48.810;9.012;2022-07-03T17:00:49;2.15;;;1.30;;
8225;SDS011;4154;48.810;9.012;2022-07-03T17:03:16;1.65;;;1.10;;
8225;SDS011;4154;48.810;9.012;2022-07-03T17:05:45;2.20;;;1.35;;
8225;SDS011;4154;48.810;9.012;2022-07-03T17:08:16;1.63;;;1.40;;
8225;SDS011;4154;48.810;9.012;2022-07-03T17:10:45;1.88;;;1.33;;
8225;SDS011;4154;48.810;9.012;2022-07-03T17:13:12;2.97;;;1.35;;
8225;SDS011;4154;48.810;9.012;2022-07-03T17:15:38;1.30;;;1.20;;
8225;SDS011;4154;48.810;9.012;2022-07-03T17:18:09;3.22;;;1.40;;
8225;SDS011;4154;48.810;9.012;2022-07-03T17:20:36;1.98;;;1.33;;
8225;SDS011;4154;48.810;9.012;2022-07-03T17:25:50;1.38;;;1.27;;